Time;durP1;ratioP1;P1;durP2;ratioP2;P2;SDS_P1;SDS_P2;PMS_P1;PMS_P2;Temp;Humidity;BMP_temperature;BMP_pressure;BME280_temperature;BME280_humidity;BME280_pressure;Samples;Min_cycle;Max_cycle;Signal;HPM_P1;HPM_P2
2021/06/15 00:00:19;;;;;;;13.73;7.70;;;;;;;18.01;71.63;101954.72;5132336;27;20502;-51
2021/06/15 00:02:47;;;;;;;13.95;7.95;;;;;;;17.95;71.89;101967.66;5132994;27;20058;-60
2021/06/15 00:05:14;;;;;;;14.50;8.40;;;;;;;17.85;71.83;101956.88;5112648;27;20376;-59
2021/06/15 00:07:41;;;;;;;13.13;7.55;;;;;;;17.90;71.67;101960.00;5132913;27;20131;-54
2021/06/15 00:10:16;;;;;;;13.95;7.90;;;;;;;17.79;71.89;101958.16;5132913;27;20061;-56
2021/06/15 00:12:43;;;;;;;16.70;8.32;;;;;;;17.81;71.82;101950.09;5133676;27;20487;-59
2021/06/15 00:15:11;;;;;;;12.85;8.82;;;;;;;17.73;72.46;101954.19;5113973;27;20047;-56
2021/06/15 00:17:38;;;;;;;13.38;7.90;;;;;;;17.66;72.82;101952.16;5132919;27;20053;-54
2021/06/15 00:20:06;;;;;;;13.30;8.10;;;;;;;17.63;72.57;101960.34;5130274;27;20051;-55
2021/06/15 00:22:33;;;;;;;14.02;8.15;;;;;;;17.62;72.70;101956.84;5132787;27;20043;-59
2021/06/15 00:25:00;;;;;;;15.45;8.25;;;;;;;17.49;72.92;101962.28;5132691;27;20118;-57
2021/06/15 00:27:29;;;;;;;14.52;8.10;;;;;;;17.49;73.19;101961.41;5132703;27;20543;-56
2021/06/15 00:29:56;;;;;;;18.83;8.15;;;;;;;17.50;73.28;101952.47;5113964;27;20534;-55
2021/06/15 00:32:24;;;;;;;13.13;7.72;;;;;;;17.51;73.20;101957.66;5114517;27;20518;-56
2021/06/15 00:34:54;;;;;;;14.13;8.65;;;;;;;17.45;73.16;101955.50;5130657;27;20051;-56
2021/06/15 00:37:21;;;;;;;14.73;7.95;;;;;;;17.47;73.03;101953.56;5114316;27;20043;-54
2021/06/15 00:39:48;;;;;;;12.68;7.68;;;;;;;17.49;72.93;101962.28;5097696;27;20053;-55
2021/06/15 00:42:16;;;;;;;12.18;7.63;;;;;;;17.51;72.65;101967.47;5114313;27;20040;-59
2021/06/15 00:44:43;;;;;;;13.30;7.75;;;;;;;17.46;73.08;101966.97;5113825;27;20043;-58
2021/06/15 00:47:10;;;;;;;13.90;7.50;;;;;;;17.42;73.00;101955.72;5132481;27;20440;-58
2021/06/15 00:49:38;;;;;;;12.75;7.63;;;;;;;17.35;72.80;101965.97;5112027;27;20039;-59
2021/06/15 00:52:05;;;;;;;12.88;7.68;;;;;;;17.35;72.67;101965.97;5114166;27;20035;-59
2021/06/15 00:54:32;;;;;;;12.77;6.32;;;;;;;17.26;72.39;101957.84;5132356;27;20050;-58
2021/06/15 00:56:59;;;;;;;11.30;6.50;;;;;;;17.23;72.00;101966.91;5114032;27;20054;-58
2021/06/15 00:59:26;;;;;;;12.80;6.80;;;;;;;17.23;71.95;101956.28;5113847;27;20035;-59
2021/06/15 01:01:53;;;;;;;9.27;5.63;;;;;;;17.19;71.58;101966.31;5132337;27;20047;-58
2021/06/15 01:04:20;;;;;;;12.52;6.13;;;;;;;17.16;71.54;101971.00;5130094;27;20047;-57
2021/06/15 01:07:02;;;;;;;8.60;5.25;;;;;;;17.17;71.67;101962.06;5131986;27;20043;-58
2021/06/15 01:10:01;;;;;;;12.95;6.13;;;;;;;17.19;71.51;101973.41;5113837;27;20050;-58
2021/06/15 01:12:48;;;;;;;9.30;5.85;;;;;;;17.14;71.13;101972.91;5059156;27;20060;-58
2021/06/15 01:15:19;;;;;;;12.63;5.35;;;;;;;17.08;71.48;101963.59;5131323;27;20118;-59
2021/06/15 01:17:57;;;;;;;11.13;5.10;;;;;;;17.08;71.12;101963.59;5110804;27;20133;-59
2021/06/15 01:20:33;;;;;;;10.30;5.80;;;;;;;17.00;71.66;101971.28;5110749;27;20054;-59
2021/06/15 01:23:23;;;;;;;9.68;5.15;;;;;;;16.92;71.82;101979.84;5113780;27;20057;-58
2021/06/15 01:26:17;;;;;;;9.20;5.35;;;;;;;16.96;71.36;101972.47;5124375;27;20444;-59
2021/06/15 01:28:57;;;;;;;9.55;5.40;;;;;;;16.94;71.57;101982.41;5104812;27;20046;-59
2021/06/15 01:31:24;;;;;;;7.82;4.60;;;;;;;16.93;71.73;101976.22;5131508;27;20039;-59
2021/06/15 01:33:54;;;;;;;9.52;5.18;;;;;;;16.94;71.54;101969.94;5130922;27;20467;-58
2021/06/15 01:36:24;;;;;;;9.77;4.80;;;;;;;16.88;71.71;101973.03;5111793;27;20050;-58
2021/06/15 01:38:56;;;;;;;9.52;4.95;;;;;;;16.86;71.68;101977.59;5105937;27;20051;-58
2021/06/15 01:41:31;;;;;;;12.35;5.10;;;;;;;16.90;71.44;101981.75;5096107;27;20043;-58
2021/06/15 01:44:01;;;;;;;9.93;4.70;;;;;;;16.89;71.53;101980.06;5113224;27;20047;-58
2021/06/15 01:46:33;;;;;;;9.32;4.90;;;;;;;16.83;71.78;101983.16;5113032;27;20406;-58
2021/06/15 01:49:04;;;;;;;10.52;5.15;;;;;;;16.80;71.67;101980.72;5112156;27;20039;-59
2021/06/15 01:51:32;;;;;;;9.10;5.47;;;;;;;16.78;72.12;101988.78;5112277;27;20415;-59
2021/06/15 01:54:08;;;;;;;11.05;4.93;;;;;;;16.77;71.61;101996.88;5131554;27;20047;-58
2021/06/15 01:56:41;;;;;;;9.27;5.10;;;;;;;16.75;71.97;102001.47;5131051;27;20383;-58
2021/06/15 01:59:09;;;;;;;12.82;5.75;;;;;;;16.60;72.88;101990.16;5113172;28;20039;-57
2021/06/15 02:01:40;;;;;;;8.20;4.80;;;;;;;16.65;72.60;101991.50;5130918;27;20066;-59
2021/06/15 02:04:07;;;;;;;10.70;5.55;;;;;;;16.68;72.32;101995.75;5088299;27;20070;-58
2021/06/15 02:06:34;;;;;;;11.35;5.15;;;;;;;16.65;72.11;101999.47;5130264;27;20055;-58
2021/06/15 02:09:04;;;;;;;10.90;5.30;;;;;;;16.67;72.25;101994.06;5131504;27;20047;-58
2021/06/15 02:11:31;;;;;;;11.13;5.18;;;;;;;16.64;72.31;102002.25;5133238;27;20475;-58
2021/06/15 02:14:02;;;;;;;10.50;5.03;;;;;;;16.62;72.12;101994.41;5097749;27;20058;-59
2021/06/15 02:16:29;;;;;;;9.95;5.63;;;;;;;16.64;72.27;102012.88;5112961;27;20043;-58
2021/06/15 02:18:57;;;;;;;10.80;4.82;;;;;;;16.66;72.50;102013.59;5112267;28;20599;-59
2021/06/15 02:21:25;;;;;;;10.30;5.25;;;;;;;16.65;72.51;102009.25;5129698;28;20386;-58
2021/06/15 02:23:56;;;;;;;12.02;5.70;;;;;;;16.66;72.15;102019.78;5113866;28;20057;-59
2021/06/15 02:26:25;;;;;;;12.57;5.03;;;;;;;16.67;71.80;102013.47;5113367;28;20054;-59
2021/06/15 02:28:52;;;;;;;10.35;4.78;;;;;;;16.65;72.13;102015.41;5131165;28;20100;-58
2021/06/15 02:31:25;;;;;;;11.00;4.93;;;;;;;16.65;72.28;102002.13;5096535;27;20403;-58
2021/06/15 02:33:53;;;;;;;11.38;5.18;;;;;;;16.64;72.17;102002.25;5116913;27;20077;-58
2021/06/15 02:36:29;;;;;;;10.18;4.55;;;;;;;16.61;72.08;102002.47;5115950;27;20926;-58
2021/06/15 02:39:01;;;;;;;8.13;4.40;;;;;;;16.56;71.96;102006.31;5135633;27;20116;-58
2021/06/15 02:41:31;;;;;;;9.57;4.72;;;;;;;16.48;71.96;102006.00;5083122;27;20051;-58
2021/06/15 02:44:01;;;;;;;8.30;4.30;;;;;;;16.48;71.48;102013.13;5117175;27;20479;-57
2021/06/15 02:46:31;;;;;;;9.50;4.05;;;;;;;16.41;71.62;102023.31;5135332;27;20047;-58
2021/06/15 02:49:00;;;;;;;10.65;5.00;;;;;;;16.37;71.86;102014.75;5116676;27;20509;-58
2021/06/15 02:51:31;;;;;;;8.60;4.28;;;;;;;16.41;71.75;102025.16;5116037;27;20043;-58
2021/06/15 02:54:09;;;;;;;9.32;4.20;;;;;;;16.39;71.61;102015.47;5135313;27;20043;-58
2021/06/15 02:56:40;;;;;;;6.45;3.75;;;;;;;16.43;71.83;102021.44;5117421;27;20533;-58
2021/06/15 02:59:07;;;;;;;8.25;4.00;;;;;;;16.46;71.84;102017.72;5116949;27;20047;-58
2021/06/15 03:01:34;;;;;;;9.68;4.30;;;;;;;16.45;71.71;102019.50;5116939;27;20039;-58
2021/06/15 03:04:02;;;;;;;8.35;4.30;;;;;;;16.49;72.12;102025.44;5115599;27;20138;-58
2021/06/15 03:06:30;;;;;;;10.57;4.95;;;;;;;16.45;72.37;102022.16;5133332;27;20046;-58
2021/06/15 03:08:57;;;;;;;8.35;5.28;;;;;;;16.46;72.66;102025.66;5116577;27;20054;-59
2021/06/15 03:11:25;;;;;;;8.52;5.78;;;;;;;16.47;72.54;102024.69;5135220;27;20065;-59
2021/06/15 03:13:55;;;;;;;11.82;5.90;;;;;;;16.50;73.18;102028.00;5116993;27;20046;-58
2021/06/15 03:16:25;;;;;;;10.57;6.10;;;;;;;16.43;73.24;102034.69;5116651;27;20059;-58
2021/06/15 03:19:06;;;;;;;11.93;6.30;;;;;;;16.46;73.03;102034.47;5116149;27;20503;-58
2021/06/15 03:21:47;;;;;;;11.30;5.78;;;;;;;16.46;72.85;102042.44;5081938;27;20055;-59
2021/06/15 03:24:22;;;;;;;10.48;5.90;;;;;;;16.40;73.33;102037.56;5134540;27;20061;-58
2021/06/15 03:27:09;;;;;;;12.23;5.85;;;;;;;16.48;73.04;102039.66;5115999;27;20054;-58
2021/06/15 03:29:40;;;;;;;8.60;5.20;;;;;;;16.50;72.14;102040.44;5115971;27;20399;-58
2021/06/15 03:32:16;;;;;;;10.10;4.53;;;;;;;16.53;72.34;102048.16;5116344;27;20047;-58
2021/06/15 03:34:45;;;;;;;8.40;4.68;;;;;;;16.49;71.68;102044.88;5097730;27;20125;-57
2021/06/15 03:37:16;;;;;;;10.02;5.47;;;;;;;16.48;71.34;102042.31;5098981;27;20089;-57
2021/06/15 03:39:44;;;;;;;10.05;4.68;;;;;;;16.45;71.22;102048.69;5116011;27;20043;-58
2021/06/15 03:42:15;;;;;;;12.80;5.03;;;;;;;16.44;71.28;102051.47;5115983;27;20043;-52
2021/06/15 03:44:42;;;;;;;9.77;4.00;;;;;;;16.48;71.33;102042.31;5115627;27;20043;-51
2021/06/15 03:47:10;;;;;;;12.30;4.40;;;;;;;16.45;71.09;102037.25;5116038;27;20058;-53
2021/06/15 03:49:37;;;;;;;9.52;4.25;;;;;;;16.45;70.70;102042.56;5132013;27;20153;-53
2021/06/15 03:52:05;;;;;;;7.63;4.50;;;;;;;16.41;70.88;102044.56;5134279;27;20051;-54
2021/06/15 03:54:33;;;;;;;7.25;3.60;;;;;;;16.46;70.20;102038.94;5135610;27;20146;-56
2021/06/15 03:57:01;;;;;;;8.10;3.78;;;;;;;16.35;70.94;102045.03;5116029;27;20047;-56
2021/06/15 03:59:32;;;;;;;9.15;4.63;;;;;;;16.37;70.55;102054.56;5115200;27;20054;-55
2021/06/15 04:02:05;;;;;;;9.50;4.10;;;;;;;16.37;70.60;102062.53;5134045;27;20036;-55
2021/06/15 04:04:35;;;;;;;9.43;3.78;;;;;;;16.41;70.82;102072.94;5097144;27;20059;-56
2021/06/15 04:07:02;;;;;;;9.18;3.97;;;;;;;16.49;70.90;102074.06;5115758;27;20043;-58
2021/06/15 04:09:34;;;;;;;11.55;4.03;;;;;;;16.41;71.07;102070.28;5115802;27;20096;-57
2021/06/15 04:12:01;;;;;;;10.00;4.38;;;;;;;16.37;71.07;102075.81;5115946;27;20039;-56
2021/06/15 04:14:28;;;;;;;9.32;4.00;;;;;;;16.34;71.00;102070.69;5114849;27;20047;-57
2021/06/15 04:16:56;;;;;;;8.70;4.07;;;;;;;16.39;71.04;102078.34;5115421;27;20058;-58
2021/06/15 04:19:31;;;;;;;9.57;4.18;;;;;;;16.47;70.75;102085.75;5113175;27;20047;-58
2021/06/15 04:22:00;;;;;;;11.82;4.22;;;;;;;16.52;71.13;102083.63;5115267;27;20050;-58
2021/06/15 04:24:28;;;;;;;10.00;4.10;;;;;;;16.58;70.81;102083.22;5115501;27;20054;-58
2021/06/15 04:26:58;;;;;;;11.13;3.85;;;;;;;16.61;71.10;102079.50;5115497;27;20065;-58
2021/06/15 04:29:29;;;;;;;9.23;4.30;;;;;;;16.63;70.66;102074.91;5110867;28;20055;-60
2021/06/15 04:31:59;;;;;;;7.78;3.88;;;;;;;16.66;70.01;102080.00;5112136;28;20495;-57
2021/06/15 04:34:27;;;;;;;8.85;3.95;;;;;;;16.66;69.76;102075.53;5092604;28;20505;-57
2021/06/15 04:37:01;;;;;;;11.38;4.80;;;;;;;16.58;70.16;102077.91;5111034;28;20503;-57
2021/06/15 04:39:39;;;;;;;12.40;4.25;;;;;;;16.67;69.72;102073.72;5112494;28;20043;-57
2021/06/15 04:42:06;;;;;;;8.48;3.70;;;;;;;16.73;69.28;102075.97;5111439;28;20047;-58
2021/06/15 04:44:40;;;;;;;7.85;3.30;;;;;;;16.79;68.51;102086.13;5111128;28;20502;-58
2021/06/15 04:47:35;;;;;;;8.52;3.30;;;;;;;16.90;68.11;102082.72;5110810;28;20048;-58
2021/06/15 04:50:04;;;;;;;6.55;2.90;;;;;;;16.76;67.30;102088.16;5108911;28;20039;-56
2021/06/15 04:52:31;;;;;;;6.45;2.92;;;;;;;16.70;66.66;102092.09;5111977;28;20047;-57
2021/06/15 04:55:00;;;;;;;6.30;2.83;;;;;;;16.61;67.22;102090.13;5110472;28;20055;-56
2021/06/15 04:57:30;;;;;;;7.93;3.13;;;;;;;16.64;67.14;102092.53;5111151;28;20070;-56
2021/06/15 05:00:02;;;;;;;11.02;3.10;;;;;;;16.56;67.19;102085.13;5110229;28;20044;-57
2021/06/15 05:02:29;;;;;;;6.35;2.58;;;;;;;16.65;67.19;102083.63;5111124;28;20044;-57
2021/06/15 05:04:57;;;;;;;8.30;3.05;;;;;;;16.67;67.11;102087.00;5092022;28;20044;-57
2021/06/15 05:07:24;;;;;;;6.20;2.85;;;;;;;16.75;67.30;102094.44;5093510;28;20055;-57
2021/06/15 05:09:54;;;;;;;5.78;2.53;;;;;;;16.71;66.85;102102.63;5111017;28;20101;-57
2021/06/15 05:12:23;;;;;;;5.05;2.38;;;;;;;16.80;67.11;102092.31;5110903;28;20092;-57
2021/06/15 05:14:50;;;;;;;9.57;2.60;;;;;;;16.77;67.08;102092.50;5111389;28;20052;-57
2021/06/15 05:17:19;;;;;;;5.57;2.40;;;;;;;16.75;66.58;102099.75;5110825;28;20051;-57
2021/06/15 05:19:46;;;;;;;7.93;2.33;;;;;;;16.83;66.89;102108.84;5108134;28;20047;-57
2021/06/15 05:22:26;;;;;;;4.88;2.40;;;;;;;16.77;66.21;102098.69;5111475;28;20043;-58
2021/06/15 05:24:57;;;;;;;6.85;2.30;;;;;;;16.78;66.02;102103.00;5110938;28;20051;-57
2021/06/15 05:27:33;;;;;;;5.03;2.13;;;;;;;16.88;65.94;102108.53;5113289;27;20047;-58
2021/06/15 05:30:01;;;;;;;6.25;2.38;;;;;;;16.91;65.77;102108.34;5113610;27;20452;-59
2021/06/15 05:32:29;;;;;;;6.38;2.20;;;;;;;16.96;65.66;102122.16;5114183;27;20049;-58
2021/06/15 05:34:56;;;;;;;8.70;2.30;;;;;;;16.97;65.84;102125.66;5130238;27;20111;-58
2021/06/15 05:37:23;;;;;;;5.88;2.15;;;;;;;16.89;64.80;102116.44;5133114;27;20123;-58
2021/06/15 05:39:50;;;;;;;8.70;2.30;;;;;;;16.89;65.01;102118.22;5114018;27;20104;-58
2021/06/15 05:42:17;;;;;;;7.03;2.10;;;;;;;17.00;65.09;102120.97;5132004;27;20501;-58
2021/06/15 05:44:44;;;;;;;5.88;2.10;;;;;;;16.99;64.68;102129.88;5112808;27;20051;-57
2021/06/15 05:47:11;;;;;;;8.52;2.13;;;;;;;16.98;64.85;102127.34;5132063;27;20529;-59
2021/06/15 05:49:38;;;;;;;7.20;2.20;;;;;;;16.90;65.70;102117.25;5129600;27;20051;-59
2021/06/15 05:52:07;;;;;;;5.45;1.90;;;;;;;16.94;64.68;102125.88;5132064;27;20146;-59
2021/06/15 05:54:34;;;;;;;6.18;1.77;;;;;;;17.01;65.17;102130.63;5131912;27;20043;-59
2021/06/15 05:57:02;;;;;;;6.43;1.52;;;;;;;17.26;64.23;102117.34;5131738;27;20494;-58
2021/06/15 05:59:29;;;;;;;5.82;1.63;;;;;;;17.31;64.27;102110.72;5130959;27;20092;-59
2021/06/15 06:01:57;;;;;;;6.28;1.90;;;;;;;17.39;64.11;102116.31;5131810;27;20039;-58
2021/06/15 06:04:27;;;;;;;6.20;2.17;;;;;;;17.46;63.51;102116.72;5111177;27;20066;-59
2021/06/15 06:09:40;;;;;;;4.47;1.65;;;;;;;17.53;62.58;102112.66;5116253;27;20059;-58
2021/06/15 06:12:08;;;;;;;8.45;1.42;;;;;;;17.65;61.89;102115.34;5097224;27;20058;-58
2021/06/15 06:14:36;;;;;;;9.05;1.92;;;;;;;17.65;61.58;102116.19;5130797;27;20047;-56
2021/06/15 06:17:03;;;;;;;8.80;2.10;;;;;;;17.74;62.42;102123.47;5113572;27;20092;-56
2021/06/15 06:19:30;;;;;;;6.72;1.75;;;;;;;17.80;62.11;102122.16;5129189;27;20051;-60
2021/06/15 06:21:57;;;;;;;5.85;1.60;;;;;;;17.92;62.27;102133.75;5096112;28;20050;-58
2021/06/15 06:24:24;;;;;;;8.75;2.08;;;;;;;17.97;61.99;102131.56;5113901;28;20063;-58
2021/06/15 06:26:51;;;;;;;5.32;1.90;;;;;;;18.05;61.82;102137.16;5096568;28;20035;-57
2021/06/15 06:29:20;;;;;;;4.45;1.38;;;;;;;18.08;61.06;102138.75;5130589;28;20586;-59
2021/06/15 06:31:47;;;;;;;4.90;1.55;;;;;;;18.22;59.55;102135.00;5113419;28;20107;-60
2021/06/15 06:34:15;;;;;;;4.10;1.30;;;;;;;18.15;58.71;102136.47;5129567;28;20054;-60
2021/06/15 06:36:42;;;;;;;7.97;1.67;;;;;;;18.03;58.08;102139.06;5130834;28;20039;-60
2021/06/15 06:39:09;;;;;;;5.85;1.65;;;;;;;18.08;58.28;102128.94;5131625;28;20476;-59
2021/06/15 06:41:37;;;;;;;3.90;1.30;;;;;;;18.12;58.39;102139.34;5131293;28;20405;-60
2021/06/15 06:44:04;;;;;;;6.15;1.40;;;;;;;18.03;58.17;102138.25;5113185;28;20043;-58
2021/06/15 06:46:31;;;;;;;5.65;1.30;;;;;;;18.12;57.96;102144.66;5131085;28;20055;-59
2021/06/15 06:48:59;;;;;;;5.15;1.25;;;;;;;18.15;57.78;102147.09;5130693;28;20116;-59
2021/06/15 06:51:26;;;;;;;4.30;1.30;;;;;;;18.04;57.26;102139.94;5111698;28;20420;-57
2021/06/15 06:53:52;;;;;;;6.60;1.23;;;;;;;18.15;57.00;102150.59;5113585;28;20503;-57
2021/06/15 06:56:19;;;;;;;4.05;1.05;;;;;;;18.21;57.11;102157.28;5131365;28;20055;-57
2021/06/15 06:58:47;;;;;;;4.65;1.40;;;;;;;18.28;57.28;102162.97;5131029;28;20043;-59
2021/06/15 07:01:14;;;;;;;5.35;1.30;;;;;;;18.16;57.70;102164.75;5096072;28;20408;-59
2021/06/15 07:03:42;;;;;;;7.43;1.70;;;;;;;18.23;55.63;102174.00;5111831;28;20055;-59
2021/06/15 07:06:08;;;;;;;4.15;1.20;;;;;;;18.21;54.53;102170.59;5111705;28;20051;-59
2021/06/15 07:08:35;;;;;;;6.25;1.05;;;;;;;18.31;52.84;102171.59;5131263;28;20108;-59
2021/06/15 07:11:03;;;;;;;3.60;1.00;;;;;;;18.53;53.97;102169.91;5113014;28;20047;-57
2021/06/15 07:13:29;;;;;;;5.00;1.00;;;;;;;18.77;52.27;102166.28;5131019;28;20065;-56
2021/06/15 07:15:56;;;;;;;4.95;1.10;;;;;;;18.96;51.67;102169.19;5131035;28;20055;-57
2021/06/15 07:18:23;;;;;;;6.05;1.65;;;;;;;19.40;52.37;102167.41;5112565;27;20569;-57
2021/06/15 07:20:50;;;;;;;7.18;1.25;;;;;;;19.40;49.82;102158.53;5133284;27;20047;-58
2021/06/15 07:23:17;;;;;;;3.50;0.90;;;;;;;19.50;49.98;102158.66;5135219;27;20074;-58
2021/06/15 07:25:44;;;;;;;4.55;0.90;;;;;;;19.24;48.66;102165.16;5134948;27;20420;-58
2021/06/15 07:28:12;;;;;;;4.78;0.80;;;;;;;19.36;48.74;102165.97;5134422;27;20485;-57
2021/06/15 07:30:38;;;;;;;2.45;0.90;;;;;;;19.52;49.96;102162.03;5099374;27;20043;-58
2021/06/15 07:33:13;;;;;;;6.85;1.40;;;;;;;19.54;49.20;102174.28;5101776;27;20040;-60
2021/06/15 07:35:40;;;;;;;5.90;1.35;;;;;;;19.86;49.27;102172.59;5132597;27;20039;-58
2021/06/15 07:38:06;;;;;;;4.57;1.05;;;;;;;20.07;48.96;102169.97;5116297;27;20055;-61
2021/06/15 07:40:33;;;;;;;6.47;1.10;;;;;;;20.34;48.59;102160.53;5134191;27;20418;-60
2021/06/15 07:43:00;;;;;;;4.78;1.08;;;;;;;20.47;46.43;102163.00;5134293;27;20043;-57
2021/06/15 07:45:29;;;;;;;4.75;0.95;;;;;;;20.49;46.20;102161.91;5133874;27;20042;-58
2021/06/15 07:47:57;;;;;;;4.65;0.80;;;;;;;20.70;46.13;102159.19;5134729;27;20521;-58
2021/06/15 07:50:24;;;;;;;4.45;0.80;;;;;;;20.79;45.79;102165.53;5132234;27;20526;-58
2021/06/15 07:52:51;;;;;;;6.05;1.05;;;;;;;21.13;46.08;102164.38;5134710;27;20042;-57
2021/06/15 07:55:18;;;;;;;4.35;1.30;;;;;;;21.16;45.00;102164.97;5134341;27;20047;-57
2021/06/15 07:57:47;;;;;;;9.52;1.30;;;;;;;21.36;44.81;102160.47;5134564;27;20043;-56
2021/06/15 08:00:16;;;;;;;6.40;1.15;;;;;;;21.52;41.02;102156.41;5133386;27;20075;-56
2021/06/15 08:02:44;;;;;;;3.75;0.98;;;;;;;21.63;42.74;102160.81;5133652;27;20055;-57
2021/06/15 08:05:12;;;;;;;4.95;1.50;;;;;;;21.69;43.45;102163.78;5131809;27;20073;-57
2021/06/15 08:07:40;;;;;;;3.15;1.42;;;;;;;21.53;43.06;102160.78;5115276;27;20116;-56
2021/06/15 08:10:07;;;;;;;5.57;1.20;;;;;;;21.77;43.39;102163.06;5115667;27;20103;-55
2021/06/15 08:12:34;;;;;;;4.22;1.05;;;;;;;21.94;43.53;102167.69;5133920;27;20039;-55
2021/06/15 08:15:02;;;;;;;5.07;0.98;;;;;;;22.20;42.67;102161.72;5133753;27;20572;-59
2021/06/15 08:17:29;;;;;;;2.30;0.70;;;;;;;22.23;41.51;102155.22;5115641;27;20092;-58
2021/06/15 08:19:56;;;;;;;5.03;1.13;;;;;;;22.33;41.04;102164.06;5131154;27;20100;-57
2021/06/15 08:22:22;;;;;;;4.60;0.93;;;;;;;22.58;40.88;102172.50;5133529;27;20052;-58
2021/06/15 08:24:49;;;;;;;3.78;1.10;;;;;;;22.57;40.24;102168.13;5133596;27;20373;-54
2021/06/15 08:27:16;;;;;;;5.45;1.10;;;;;;;22.66;40.73;102166.38;5133042;27;20100;-56
2021/06/15 08:29:43;;;;;;;5.72;1.08;;;;;;;22.46;41.10;102163.78;5132321;27;20509;-55
2021/06/15 08:32:10;;;;;;;3.63;1.35;;;;;;;22.69;41.18;102164.28;5134102;27;20043;-56
2021/06/15 08:34:37;;;;;;;5.40;0.95;;;;;;;22.96;40.11;102163.41;5131138;27;20537;-56
2021/06/15 08:37:04;;;;;;;6.35;1.05;;;;;;;23.19;40.71;102154.13;5133121;27;20043;-56
2021/06/15 08:39:30;;;;;;;4.18;0.88;;;;;;;23.55;39.37;102154.16;5133585;27;20095;-56
2021/06/15 08:41:57;;;;;;;4.43;1.20;;;;;;;23.73;38.20;102154.13;5133493;27;20062;-55
2021/06/15 08:44:24;;;;;;;5.75;0.90;;;;;;;23.73;38.50;102168.41;5133052;27;20521;-56
2021/06/15 08:46:51;;;;;;;4.07;1.10;;;;;;;23.56;38.86;102154.00;5114997;27;20047;-56
2021/06/15 08:49:18;;;;;;;4.25;1.08;;;;;;;23.78;39.22;102144.59;5113352;27;20062;-57
2021/06/15 08:51:45;;;;;;;6.38;1.20;;;;;;;23.70;39.74;102131.13;5131899;27;20478;-57
2021/06/15 08:54:15;;;;;;;5.38;1.20;;;;;;;23.96;38.02;102136.53;5096984;27;20055;-57
2021/06/15 08:56:42;;;;;;;5.88;1.25;;;;;;;24.12;40.07;102127.75;5112020;27;20495;-56
2021/06/15 08:59:24;;;;;;;6.57;1.35;;;;;;;24.14;40.13;102125.72;5130447;27;20077;-57
2021/06/15 09:01:57;;;;;;;6.50;1.45;;;;;;;24.35;39.81;102123.66;5131865;27;20063;-56
2021/06/15 09:04:24;;;;;;;6.18;1.67;;;;;;;24.35;39.32;102129.03;5129231;27;20922;-57
2021/06/15 09:06:55;;;;;;;5.18;1.20;;;;;;;24.56;38.65;102126.78;5112901;27;20375;-58
2021/06/15 09:09:22;;;;;;;6.05;1.30;;;;;;;24.54;38.94;102134.19;5132596;27;20098;-57
2021/06/15 09:11:59;;;;;;;4.28;1.20;;;;;;;24.66;38.44;102129.38;5130038;27;20054;-56
2021/06/15 09:14:46;;;;;;;5.15;1.10;;;;;;;24.50;38.81;102131.97;5131796;27;20074;-59
2021/06/15 09:17:18;;;;;;;4.55;1.45;;;;;;;24.04;38.10;102119.66;5113669;27;20043;-60
2021/06/15 09:19:46;;;;;;;6.82;1.42;;;;;;;24.03;39.17;102123.31;5128758;27;20059;-59
2021/06/15 09:22:30;;;;;;;4.93;1.23;;;;;;;24.46;37.69;102126.94;5131119;27;20439;-59
2021/06/15 09:24:57;;;;;;;5.43;1.33;;;;;;;24.66;37.28;102126.69;5129799;27;20050;-60
2021/06/15 09:27:35;;;;;;;4.40;1.30;;;;;;;25.11;36.84;102122.81;5113742;27;20494;-60
2021/06/15 09:30:08;;;;;;;6.80;1.25;;;;;;;25.05;36.88;102126.13;5112595;27;20461;-60
2021/06/15 09:32:38;;;;;;;4.57;1.50;;;;;;;25.47;37.78;102119.81;5130806;27;20047;-60
2021/06/15 09:35:13;;;;;;;5.20;1.50;;;;;;;25.64;36.95;102115.25;5129255;27;20062;-61
2021/06/15 09:37:44;;;;;;;7.57;1.33;;;;;;;24.93;36.50;102117.53;5130897;27;20058;-62
2021/06/15 09:40:17;;;;;;;4.82;1.30;;;;;;;25.12;37.13;102112.88;5113180;27;20047;-61
2021/06/15 09:43:06;;;;;;;6.70;1.50;;;;;;;25.09;38.09;102114.03;5129643;27;20046;-61
2021/06/15 09:45:35;;;;;;;5.22;1.15;;;;;;;25.19;37.30;102121.13;5112292;27;20059;-60
2021/06/15 09:48:23;;;;;;;5.80;1.35;;;;;;;25.27;36.80;102116.56;5130367;27;20517;-60
2021/06/15 09:51:11;;;;;;;4.78;1.60;;;;;;;25.31;37.48;102117.94;5126086;27;20053;-60
2021/06/15 09:53:48;;;;;;;3.65;1.05;;;;;;;25.64;36.95;102117.13;5130136;27;20166;-60
2021/06/15 09:56:16;;;;;;;6.30;1.15;;;;;;;25.95;36.05;102128.03;5130411;27;20054;-60
2021/06/15 09:58:51;;;;;;;7.13;1.25;;;;;;;25.94;36.11;102125.50;5112072;27;20047;-61
2021/06/15 10:01:38;;;;;;;7.53;1.40;;;;;;;26.30;36.42;102127.81;5113670;27;20517;-60
2021/06/15 10:04:16;;;;;;;6.07;1.20;;;;;;;26.08;35.81;102132.94;5129529;27;20075;-61
2021/06/15 10:06:48;;;;;;;3.50;0.93;;;;;;;26.26;35.45;102123.78;5093229;27;20051;-61
2021/06/15 10:09:35;;;;;;;4.93;1.10;;;;;;;26.41;35.76;102123.88;5095144;27;20058;-61
2021/06/15 10:12:04;;;;;;;7.38;1.63;;;;;;;26.70;35.21;102126.00;5111172;27;20050;-61
2021/06/15 10:14:32;;;;;;;3.38;1.00;;;;;;;26.81;34.41;102132.88;5128595;27;20062;-60
2021/06/15 10:17:00;;;;;;;6.25;1.10;;;;;;;27.13;34.13;102131.84;5130101;27;20501;-60
2021/06/15 10:19:27;;;;;;;7.82;1.50;;;;;;;27.23;34.75;102128.88;5129003;27;20053;-60
2021/06/15 10:21:55;;;;;;;6.47;1.33;;;;;;;27.52;33.51;102127.34;5130232;27;20051;-61
2021/06/15 10:24:26;;;;;;;6.22;1.10;;;;;;;27.35;33.08;102121.22;5112689;28;20156;-61
2021/06/15 10:27:03;;;;;;;5.05;1.30;;;;;;;27.12;33.15;102122.03;5130421;28;20058;-61
2021/06/15 10:29:32;;;;;;;5.97;1.38;;;;;;;27.26;32.62;102112.31;5112448;28;20055;-61
2021/06/15 10:32:12;;;;;;;3.78;1.45;;;;;;;27.83;32.36;102121.81;5130628;28;20048;-61
2021/06/15 10:34:53;;;;;;;3.00;0.90;;;;;;;28.04;30.99;102114.06;5129140;28;20054;-61
2021/06/15 10:37:32;;;;;;;5.85;1.20;;;;;;;27.65;31.64;102115.91;5112290;28;20402;-62
2021/06/15 10:40:11;;;;;;;4.65;1.17;;;;;;;27.71;31.75;102112.47;5112116;28;20587;-61
2021/06/15 10:42:38;;;;;;;6.25;1.35;;;;;;;27.83;32.49;102104.78;5130370;28;20047;-62
2021/06/15 10:45:11;;;;;;;3.80;1.30;;;;;;;28.13;30.82;102096.72;5130013;28;20305;-60
2021/06/15 10:47:58;;;;;;;;;;;;;;;28.22;31.12;102092.88;5130956;28;20039;-60
2021/06/15 10:50:58;;;;;;;3.35;0.80;;;;;;;28.31;31.18;102090.91;5086782;28;19923;-62
2021/06/15 10:53:44;;;;;;;9.65;1.15;;;;;;;28.50;30.49;102087.63;5098652;27;20444;-56
2021/06/15 10:56:16;;;;;;;4.40;0.90;;;;;;;28.67;29.65;102095.53;5134592;27;20128;-56
2021/06/15 10:58:53;;;;;;;3.08;0.73;;;;;;;28.74;29.81;102093.78;5116293;27;20043;-56
2021/06/15 11:01:27;;;;;;;3.70;0.90;;;;;;;28.86;28.67;102082.44;5133888;27;20047;-56
2021/06/15 11:03:55;;;;;;;4.70;1.13;;;;;;;29.02;28.49;102084.88;5116083;27;20046;-55
2021/06/15 11:06:28;;;;;;;5.63;1.25;;;;;;;29.06;27.98;102088.06;5132656;27;20054;-58
2021/06/15 11:09:09;;;;;;;;;;;;;;;28.95;28.08;102084.81;5134551;27;20047;-56
2021/06/15 11:11:36;;;;;;;4.38;0.80;;;;;;;28.91;28.43;102080.00;5134588;27;19920;-57
2021/06/15 11:14:07;;;;;;;4.97;1.00;;;;;;;29.25;28.14;102089.31;5133561;27;20055;-56
2021/06/15 11:16:43;;;;;;;4.88;1.02;;;;;;;29.38;28.12;102078.56;5115938;27;20047;-57
2021/06/15 11:21:52;;;;;;;3.30;0.93;;;;;;;29.48;28.67;102095.31;5133116;27;20406;-55
2021/06/15 11:24:32;;;;;;;3.97;0.98;;;;;;;29.36;27.17;102083.34;5115293;27;20046;-57
2021/06/15 11:27:01;;;;;;;4.40;0.80;;;;;;;29.60;27.49;102078.53;5134087;27;20043;-56
2021/06/15 11:29:38;;;;;;;3.50;0.88;;;;;;;29.41;27.39;102080.91;5133310;27;20670;-54
2021/06/15 11:32:15;;;;;;;3.08;0.95;;;;;;;29.77;26.98;102076.34;5133634;27;20050;-57
2021/06/15 11:35:02;;;;;;;4.50;0.98;;;;;;;29.53;26.62;102080.34;5132191;27;20043;-56
2021/06/15 11:37:37;;;;;;;3.55;0.90;;;;;;;29.64;26.42;102071.66;5114716;27;20069;-56
2021/06/15 11:40:10;;;;;;;4.28;0.90;;;;;;;29.60;26.80;102073.97;5133235;27;20150;-57
2021/06/15 11:42:39;;;;;;;3.10;0.80;;;;;;;29.98;26.42;102075.47;5133774;27;20051;-56
2021/06/15 11:45:10;;;;;;;3.22;0.80;;;;;;;30.43;25.56;102073.19;5132778;27;20059;-56